New Iberia, LA

7:59 PM CST on December 17, 2014 (GMT -0600)
Belair | Change Station
CLOSE
Current Station
Personal Weather Station
Location: New Iberia, LA
Elevation: 18 ft
Nearby Weather Stations

Elev 18 ft 29.99 °N, 91.77 °W | Updated 3 seconds ago

Partly Cloudy
Partly Cloudy
52.3 °F
Feels Like 52.3 °F
N
0.0
Wind Variable Wind from SE
Gusts 0.0 mph

Today
High -- | Low -- °F
--% Chance of Precip.
Yesterday
High -- | Low -- °F
Precip. -- in
6:56 AM 5:10 PM
Waning Crescent, 18% visible
Pressure 30.19 in
Visibility 6.0 miles
Clouds Clear
Dew Point 45 °F
Humidity 76%
Rainfall 0.00 in
Snow Depth Not available.
UV 0 out of 12
Pollen 3.80 out of 12
Air Quality Not available.
Flu Activity Not available.
METAR KARA 180153Z 15003KT 6SM HZ CLR 11/06 A3019 RMK AO2 SLP222 T01060056

More Conditions Fewer Conditions

Pressure 30.19 in
Visibility 6.0 miles
Clouds Clear
Dew Point 45 °F
Humidity 76%
Rainfall 0.00 in
Snow Depth Not available.
UV 0 out of 12
Pollen 3.80 out of 12
Air Quality Not available.
Flu Activity Not available.
METAR KARA 180153Z 15003KT 6SM HZ CLR 11/06 A3019 RMK AO2 SLP222 T01060056

More Conditions Fewer Conditions

10-Day Weather Forecast

Almanac

Astronomy

Dec. 17, 2014 Rise Set
Actual Time
Civil Twilight
Nautical Twilight
Astronomical Twilight
Moon
Length of Visible Light
Length of Day
Tomorrow will be .
, % of the Moon is Illuminated

Today's Extremes

State Highs State Lows

Community

WunderPhotos

Upload Photos

1,778,846 photos uploaded!

WunderBlogs® & News

Nearby

Air Quality

  Air Quality AQ Index Pollutant
Not available.

Snow Depth

Station Depth Elevation

Earthquake Activity

City Distance Mag. Time & Date
Minimum magnitude displayed is 2.5.

Coastal Water Temperatures

Place Temperature

Nearby Weather Stations